Portada
METAR-TAF:

METAR-TAF

Aeroports :

Vladivostok, Rússia

latitud: 43-07N, longitud: 131-56E, altitud: 184 m

Observació

L'informe es va fer fa 52 minuts, a les 00:00 UTC
Vent 2 kt del Oest
Temperatura 5°C
Humitat 75%
Pressió 1009 hPa
Visibilitat: 9000 m

METAR: UHWW 200000Z 27001MPS 9000 NSC 05/01 Q1009 R25L/0///70 NOSIG RMK QFE755

Hora: 10:52 (00:52 UTC)

Pronòstic

L'informe es va fer fa 1 hora i 52 minuts, a les 23:00 UTC
Pronòstic vàlid del 20 a les 00 UTC al 20 a les 24 UTC
Vent 6 kt del Sud/Sud-Oest
Visibilitat: 5000 m
Cel ennuvolat a una alçada de 3000 ft
calitja
Evolucionant progressivament
l' 20 a les 09 UTC al 20 a les 11 UTC
Vent 6 kt del Nord
Cel ennuvolat a una alçada de 1500 ft, Cumulonimbus.
Evolucionant progressivament
l' 20 a les 12 UTC al 20 a les 14 UTC
Visibilitat: 3500 m
xàfecs de neu

TAF: UHWW 192300Z 2000/2024 20003MPS 5000 HZ BKN030 BECMG 2009/2011 36003MPS BKN015CB BECMG 2012/2014 3500 -SHSN

Observacions i pronòstics meteorològics de més de 4000 aeroports (METAR i TAF).

Les estacions disponibles són els punts grocs i vermells al mapa.

Posi el ratolí al punt desitjat per veure el nom de l'estació.

Feu clic per veure les observacions i els pronòstics meteorològics.

Per canviar el mapa: feu clic els botons verds amb una creu de color negre per apropar; al botó verd amb un guió per allunyar la imatge; o en les fletxes verdes per a mapes adjacents.


METAR-TAF: